createdAt,value
2023-02-22T00:00:23.534Z,4.32
2023-02-22T00:15:23.711Z,4.12
2023-02-22T00:30:23.793Z,4.43
2023-02-22T00:45:23.737Z,3.90
2023-02-22T01:00:23.782Z,3.90
2023-02-22T01:15:23.847Z,3.72
2023-02-22T01:30:23.959Z,3.62
2023-02-22T01:45:23.996Z,3.55
2023-02-22T02:00:23.998Z,3.38
2023-02-22T02:15:24.066Z,3.53
2023-02-22T02:30:33.028Z,3.17
2023-02-22T02:45:33.164Z,3.17
2023-02-22T03:00:33.238Z,3.45
2023-02-22T03:15:23.136Z,2.80
2023-02-22T03:30:23.366Z,2.90
2023-02-22T03:45:23.220Z,2.58
2023-02-22T04:00:23.233Z,2.50
2023-02-22T04:15:23.240Z,2.40
2023-02-22T04:30:23.468Z,2.28
2023-02-22T04:45:23.664Z,2.47
2023-02-22T05:00:23.658Z,2.08
2023-02-22T05:15:23.466Z,1.88
2023-02-22T05:30:24.398Z,1.88
2023-02-22T05:45:23.954Z,1.73
2023-02-22T06:00:23.615Z,1.75
2023-02-22T06:15:23.650Z,1.67
2023-02-22T06:30:24.095Z,1.73
2023-02-22T06:45:23.934Z,1.87
2023-02-22T07:00:24.192Z,1.80
2023-02-22T07:15:33.304Z,2.10
2023-02-22T07:30:33.230Z,2.15
2023-02-22T07:45:33.393Z,2.47
2023-02-22T08:00:33.571Z,2.82
2023-02-22T08:15:23.232Z,3.30
2023-02-22T08:30:23.277Z,3.83
2023-02-22T08:45:23.578Z,4.30
2023-02-22T09:00:23.254Z,4.78
2023-02-22T09:15:23.474Z,5.43
2023-02-22T09:30:23.926Z,5.90
2023-02-22T09:45:23.525Z,6.38
2023-02-22T10:00:23.588Z,6.60
2023-02-22T10:15:23.509Z,7.07
2023-02-22T10:30:25.403Z,7.47
2023-02-22T10:45:23.631Z,8.07
2023-02-22T11:00:24.630Z,8.45
2023-02-22T11:15:23.375Z,9.00
2023-02-22T11:30:23.290Z,9.85
2023-02-22T11:45:23.445Z,10.38
2023-02-22T12:00:23.340Z,10.80
2023-02-22T12:15:23.464Z,11.23
2023-02-22T12:30:23.587Z,11.53
2023-02-22T12:45:23.728Z,11.77
2023-02-22T13:00:23.676Z,11.83
2023-02-22T13:15:23.579Z,12.27
2023-02-22T13:30:23.731Z,12.65
2023-02-22T13:45:23.912Z,12.43
2023-02-22T14:00:23.960Z,12.50
2023-02-22T14:15:30.164Z,12.83
2023-02-22T14:15:30.727Z,12.83
2023-02-22T14:30:23.904Z,12.90
2023-02-22T14:45:23.992Z,13.02
2023-02-22T15:00:32.904Z,12.90
2023-02-22T15:15:23.102Z,13.08
2023-02-22T15:30:23.269Z,12.95
2023-02-22T15:45:23.128Z,12.75
2023-02-22T16:00:23.193Z,12.63
2023-02-22T16:15:23.115Z,12.40
2023-02-22T16:30:24.739Z,12.05
2023-02-22T16:45:23.445Z,11.30
2023-02-22T17:00:23.471Z,11.52
2023-02-22T17:15:23.484Z,11.27
2023-02-22T17:30:24.110Z,10.95
2023-02-22T17:45:23.508Z,10.70
2023-02-22T18:00:23.453Z,10.73
2023-02-22T18:09:28.706Z,11.50
2023-02-22T18:15:23.106Z,10.65
2023-02-22T18:30:23.030Z,10.25
2023-02-22T18:45:23.051Z,10.32
2023-02-22T19:00:22.984Z,10.47
2023-02-22T19:15:23.178Z,10.60
2023-02-22T19:30:23.373Z,10.75
2023-02-22T19:45:23.414Z,10.83
2023-02-22T20:00:23.345Z,10.87
2023-02-22T20:15:23.691Z,10.67
2023-02-22T20:30:23.570Z,10.57
2023-02-22T20:45:23.586Z,10.45
2023-02-22T21:00:23.524Z,10.37
2023-02-22T21:15:23.573Z,10.02
2023-02-22T21:30:23.705Z,9.80
2023-02-22T21:45:23.855Z,9.52
2023-02-22T22:00:24.085Z,9.40
2023-02-22T22:15:23.819Z,9.38
2023-02-22T22:30:23.870Z,9.23
2023-02-22T22:45:23.890Z,9.17
2023-02-22T23:00:48.401Z,10.00
2023-02-22T23:15:23.422Z,8.82
2023-02-22T23:30:23.462Z,8.55
2023-02-22T23:45:23.424Z,8.45
